sensor_id;sensor_type;location;lat;lon;timestamp;temperature;humidity
8261;DHT22;64115;50.170;8.242;2023-06-14T00:00:46;14.10;90.50
8261;DHT22;64115;50.170;8.242;2023-06-14T00:03:14;14.10;90.20
8261;DHT22;64115;50.170;8.242;2023-06-14T00:05:43;14.10;90.60
8261;DHT22;64115;50.170;8.242;2023-06-14T00:08:14;14.10;90.70
8261;DHT22;64115;50.170;8.242;2023-06-14T00:10:41;14.00;91.60
8261;DHT22;64115;50.170;8.242;2023-06-14T00:13:08;14.10;91.30
8261;DHT22;64115;50.170;8.242;2023-06-14T00:15:35;14.10;91.60
8261;DHT22;64115;50.170;8.242;2023-06-14T00:18:03;14.10;91.90
8261;DHT22;64115;50.170;8.242;2023-06-14T00:20:31;14.10;90.70
8261;DHT22;64115;50.170;8.242;2023-06-14T00:22:59;14.10;91.20
8261;DHT22;64115;50.170;8.242;2023-06-14T00:25:28;14.10;91.50
8261;DHT22;64115;50.170;8.242;2023-06-14T00:27:56;14.10;91.70
8261;DHT22;64115;50.170;8.242;2023-06-14T00:30:23;14.10;92.00
8261;DHT22;64115;50.170;8.242;2023-06-14T00:32:51;14.10;91.40
8261;DHT22;64115;50.170;8.242;2023-06-14T00:35:18;14.10;92.20
8261;DHT22;64115;50.170;8.242;2023-06-14T00:37:44;14.00;92.50
8261;DHT22;64115;50.170;8.242;2023-06-14T00:40:11;14.00;91.90
8261;DHT22;64115;50.170;8.242;2023-06-14T00:42:39;14.00;92.30
8261;DHT22;64115;50.170;8.242;2023-06-14T00:45:07;14.00;92.60
8261;DHT22;64115;50.170;8.242;2023-06-14T00:47:35;14.00;92.40
8261;DHT22;64115;50.170;8.242;2023-06-14T00:50:03;14.00;92.20
8261;DHT22;64115;50.170;8.242;2023-06-14T00:52:32;13.90;92.00
8261;DHT22;64115;50.170;8.242;2023-06-14T00:55:00;13.90;92.30
8261;DHT22;64115;50.170;8.242;2023-06-14T00:57:27;13.80;92.20
8261;DHT22;64115;50.170;8.242;2023-06-14T00:59:56;13.70;92.30
8261;DHT22;64115;50.170;8.242;2023-06-14T01:02:23;13.70;92.50
8261;DHT22;64115;50.170;8.242;2023-06-14T01:04:51;13.60;92.50
8261;DHT22;64115;50.170;8.242;2023-06-14T01:07:25;13.50;92.30
8261;DHT22;64115;50.170;8.242;2023-06-14T01:10:05;13.60;92.50
8261;DHT22;64115;50.170;8.242;2023-06-14T01:12:47;13.50;92.40
8261;DHT22;64115;50.170;8.242;2023-06-14T01:15:17;13.40;92.80
8261;DHT22;64115;50.170;8.242;2023-06-14T01:17:45;13.40;93.10
8261;DHT22;64115;50.170;8.242;2023-06-14T01:20:12;13.30;93.20
8261;DHT22;64115;50.170;8.242;2023-06-14T01:22:51;13.30;93.10
8261;DHT22;64115;50.170;8.242;2023-06-14T01:25:18;13.20;93.10
8261;DHT22;64115;50.170;8.242;2023-06-14T01:27:47;13.20;93.20
8261;DHT22;64115;50.170;8.242;2023-06-14T01:30:15;13.10;93.50
8261;DHT22;64115;50.170;8.242;2023-06-14T01:32:42;13.00;93.50
8261;DHT22;64115;50.170;8.242;2023-06-14T01:35:10;13.00;93.70
8261;DHT22;64115;50.170;8.242;2023-06-14T01:37:37;13.00;93.90
8261;DHT22;64115;50.170;8.242;2023-06-14T01:40:07;13.10;93.70
8261;DHT22;64115;50.170;8.242;2023-06-14T01:42:37;13.00;93.60
8261;DHT22;64115;50.170;8.242;2023-06-14T01:45:06;13.00;93.30
8261;DHT22;64115;50.170;8.242;2023-06-14T01:47:34;13.00;93.50
8261;DHT22;64115;50.170;8.242;2023-06-14T01:50:02;13.00;93.80
8261;DHT22;64115;50.170;8.242;2023-06-14T01:52:29;12.90;93.40
8261;DHT22;64115;50.170;8.242;2023-06-14T01:54:56;12.90;93.70
8261;DHT22;64115;50.170;8.242;2023-06-14T01:57:25;12.90;93.90
8261;DHT22;64115;50.170;8.242;2023-06-14T01:59:52;12.90;94.40
8261;DHT22;64115;50.170;8.242;2023-06-14T02:02:19;12.90;93.90
8261;DHT22;64115;50.170;8.242;2023-06-14T02:04:46;12.90;93.80
8261;DHT22;64115;50.170;8.242;2023-06-14T02:07:14;12.90;93.90
8261;DHT22;64115;50.170;8.242;2023-06-14T02:09:40;12.90;93.90
8261;DHT22;64115;50.170;8.242;2023-06-14T02:12:08;12.80;93.90
8261;DHT22;64115;50.170;8.242;2023-06-14T02:14:37;12.80;94.10
8261;DHT22;64115;50.170;8.242;2023-06-14T02:17:05;12.80;94.30
8261;DHT22;64115;50.170;8.242;2023-06-14T02:19:32;12.80;94.20
8261;DHT22;64115;50.170;8.242;2023-06-14T02:21:58;12.80;94.30
8261;DHT22;64115;50.170;8.242;2023-06-14T02:24:25;12.80;94.80
8261;DHT22;64115;50.170;8.242;2023-06-14T02:26:52;12.80;94.80
8261;DHT22;64115;50.170;8.242;2023-06-14T02:29:19;12.80;95.00
8261;DHT22;64115;50.170;8.242;2023-06-14T02:31:47;12.80;95.30
8261;DHT22;64115;50.170;8.242;2023-06-14T02:34:15;12.80;95.00
8261;DHT22;64115;50.170;8.242;2023-06-14T02:36:43;12.70;95.10
8261;DHT22;64115;50.170;8.242;2023-06-14T02:39:10;12.70;94.80
8261;DHT22;64115;50.170;8.242;2023-06-14T02:41:38;12.70;94.90
8261;DHT22;64115;50.170;8.242;2023-06-14T02:44:05;12.60;95.00
8261;DHT22;64115;50.170;8.242;2023-06-14T02:46:32;12.60;95.10
8261;DHT22;64115;50.170;8.242;2023-06-14T02:49:00;12.60;95.60
8261;DHT22;64115;50.170;8.242;2023-06-14T02:51:27;12.50;95.40
8261;DHT22;64115;50.170;8.242;2023-06-14T02:53:54;12.40;95.50
8261;DHT22;64115;50.170;8.242;2023-06-14T02:56:21;12.40;95.60
8261;DHT22;64115;50.170;8.242;2023-06-14T02:58:48;12.30;95.80
8261;DHT22;64115;50.170;8.242;2023-06-14T03:01:16;12.30;95.90
8261;DHT22;64115;50.170;8.242;2023-06-14T03:03:43;12.20;95.70
8261;DHT22;64115;50.170;8.242;2023-06-14T03:06:11;12.20;96.10
8261;DHT22;64115;50.170;8.242;2023-06-14T03:08:39;12.20;95.80
8261;DHT22;64115;50.170;8.242;2023-06-14T03:11:07;12.20;95.80
8261;DHT22;64115;50.170;8.242;2023-06-14T03:13:34;12.10;96.30
8261;DHT22;64115;50.170;8.242;2023-06-14T03:16:01;12.10;95.90
8261;DHT22;64115;50.170;8.242;2023-06-14T03:18:29;12.10;95.70
8261;DHT22;64115;50.170;8.242;2023-06-14T03:21:00;12.10;95.90
8261;DHT22;64115;50.170;8.242;2023-06-14T03:23:29;12.10;96.20
8261;DHT22;64115;50.170;8.242;2023-06-14T03:25:56;11.90;96.10
8261;DHT22;64115;50.170;8.242;2023-06-14T03:28:23;11.90;96.40
8261;DHT22;64115;50.170;8.242;2023-06-14T03:30:51;11.80;96.40
8261;DHT22;64115;50.170;8.242;2023-06-14T03:33:18;11.70;96.90
8261;DHT22;64115;50.170;8.242;2023-06-14T03:35:45;11.80;97.10
8261;DHT22;64115;50.170;8.242;2023-06-14T03:38:11;11.70;97.60
8261;DHT22;64115;50.170;8.242;2023-06-14T03:40:40;11.70;97.30
8261;DHT22;64115;50.170;8.242;2023-06-14T03:43:06;11.70;97.10
8261;DHT22;64115;50.170;8.242;2023-06-14T03:45:33;11.60;97.70
8261;DHT22;64115;50.170;8.242;2023-06-14T03:48:00;11.60;97.40
8261;DHT22;64115;50.170;8.242;2023-06-14T03:50:28;11.60;97.60
8261;DHT22;64115;50.170;8.242;2023-06-14T03:52:55;11.60;97.60
8261;DHT22;64115;50.170;8.242;2023-06-14T03:55:22;11.60;97.70
8261;DHT22;64115;50.170;8.242;2023-06-14T03:57:52;11.60;98.30
8261;DHT22;64115;50.170;8.242;2023-06-14T04:00:19;11.80;98.40
8261;DHT22;64115;50.170;8.242;2023-06-14T04:02:46;11.90;98.50
8261;DHT22;64115;50.170;8.242;2023-06-14T04:05:13;11.90;98.30
8261;DHT22;64115;50.170;8.242;2023-06-14T04:07:42;12.00;97.80
8261;DHT22;64115;50.170;8.242;2023-06-14T04:10:11;12.00;98.00
8261;DHT22;64115;50.170;8.242;2023-06-14T04:12:38;12.10;98.40
8261;DHT22;64115;50.170;8.242;2023-06-14T04:15:07;12.30;97.80
8261;DHT22;64115;50.170;8.242;2023-06-14T04:17:36;12.40;98.10
8261;DHT22;64115;50.170;8.242;2023-06-14T04:20:04;12.50;98.30
8261;DHT22;64115;50.170;8.242;2023-06-14T04:22:33;12.50;98.30
8261;DHT22;64115;50.170;8.242;2023-06-14T04:25:00;12.60;98.40
8261;DHT22;64115;50.170;8.242;2023-06-14T04:27:27;12.60;98.40
8261;DHT22;64115;50.170;8.242;2023-06-14T04:29:56;12.70;99.10
8261;DHT22;64115;50.170;8.242;2023-06-14T04:32:26;12.90;98.60
8261;DHT22;64115;50.170;8.242;2023-06-14T04:34:55;13.00;98.70
8261;DHT22;64115;50.170;8.242;2023-06-14T04:37:23;13.10;98.80
8261;DHT22;64115;50.170;8.242;2023-06-14T04:39:50;13.20;98.80
8261;DHT22;64115;50.170;8.242;2023-06-14T04:42:17;13.30;98.80
8261;DHT22;64115;50.170;8.242;2023-06-14T04:44:46;13.30;98.70
8261;DHT22;64115;50.170;8.242;2023-06-14T04:47:14;13.30;99.50
8261;DHT22;64115;50.170;8.242;2023-06-14T04:49:43;13.30;99.40
8261;DHT22;64115;50.170;8.242;2023-06-14T04:52:10;13.30;99.50
8261;DHT22;64115;50.170;8.242;2023-06-14T04:54:38;13.40;98.80
8261;DHT22;64115;50.170;8.242;2023-06-14T04:57:08;13.50;99.40
8261;DHT22;64115;50.170;8.242;2023-06-14T04:59:39;13.60;98.80
8261;DHT22;64115;50.170;8.242;2023-06-14T05:02:06;13.60;98.90
8261;DHT22;64115;50.170;8.242;2023-06-14T05:04:34;13.70;98.60
8261;DHT22;64115;50.170;8.242;2023-06-14T05:07:06;13.80;98.50
8261;DHT22;64115;50.170;8.242;2023-06-14T05:09:33;13.90;98.50
8261;DHT22;64115;50.170;8.242;2023-06-14T05:12:00;14.00;98.40
8261;DHT22;64115;50.170;8.242;2023-06-14T05:14:27;14.10;98.00
8261;DHT22;64115;50.170;8.242;2023-06-14T05:16:54;14.20;98.10
8261;DHT22;64115;50.170;8.242;2023-06-14T05:19:21;14.30;97.50
8261;DHT22;64115;50.170;8.242;2023-06-14T05:21:48;14.40;97.80
8261;DHT22;64115;50.170;8.242;2023-06-14T05:24:16;14.50;97.90
8261;DHT22;64115;50.170;8.242;2023-06-14T05:26:43;14.60;97.80
8261;DHT22;64115;50.170;8.242;2023-06-14T05:29:10;14.60;96.80
8261;DHT22;64115;50.170;8.242;2023-06-14T05:31:37;14.60;96.90
8261;DHT22;64115;50.170;8.242;2023-06-14T05:34:04;14.70;97.20
8261;DHT22;64115;50.170;8.242;2023-06-14T05:36:31;14.70;96.70
8261;DHT22;64115;50.170;8.242;2023-06-14T05:38:57;14.90;98.00
8261;DHT22;64115;50.170;8.242;2023-06-14T05:41:27;15.00;96.40
8261;DHT22;64115;50.170;8.242;2023-06-14T05:43:54;15.10;97.30
8261;DHT22;64115;50.170;8.242;2023-06-14T05:46:21;15.10;96.70
8261;DHT22;64115;50.170;8.242;2023-06-14T05:48:51;15.10;97.10
8261;DHT22;64115;50.170;8.242;2023-06-14T05:51:18;15.20;96.40
8261;DHT22;64115;50.170;8.242;2023-06-14T05:53:45;15.20;96.40
8261;DHT22;64115;50.170;8.242;2023-06-14T05:56:12;15.20;96.10
8261;DHT22;64115;50.170;8.242;2023-06-14T05:58:41;15.30;96.80
8261;DHT22;64115;50.170;8.242;2023-06-14T06:01:07;15.40;96.80
8261;DHT22;64115;50.170;8.242;2023-06-14T06:03:34;15.50;96.60
8261;DHT22;64115;50.170;8.242;2023-06-14T06:06:01;15.60;97.10
8261;DHT22;64115;50.170;8.242;2023-06-14T06:08:28;15.80;96.70
8261;DHT22;64115;50.170;8.242;2023-06-14T06:10:55;15.90;96.20
8261;DHT22;64115;50.170;8.242;2023-06-14T06:13:22;15.90;96.00
8261;DHT22;64115;50.170;8.242;2023-06-14T06:15:51;16.00;96.60
8261;DHT22;64115;50.170;8.242;2023-06-14T06:18:17;16.10;96.20
8261;DHT22;64115;50.170;8.242;2023-06-14T06:20:44;16.20;96.50
8261;DHT22;64115;50.170;8.242;2023-06-14T06:23:12;16.30;96.50
8261;DHT22;64115;50.170;8.242;2023-06-14T09:23:08;19.20;92.90
8261;DHT22;64115;50.170;8.242;2023-06-14T09:25:43;19.20;91.90
8261;DHT22;64115;50.170;8.242;2023-06-14T09:28:10;19.30;92.30
8261;DHT22;64115;50.170;8.242;2023-06-14T09:30:37;19.10;91.50
8261;DHT22;64115;50.170;8.242;2023-06-14T09:33:04;19.10;90.50
8261;DHT22;64115;50.170;8.242;2023-06-14T09:35:31;19.20;91.50
8261;DHT22;64115;50.170;8.242;2023-06-14T09:37:58;19.10;91.70
8261;DHT22;64115;50.170;8.242;2023-06-14T09:40:26;19.00;90.90
8261;DHT22;64115;50.170;8.242;2023-06-14T09:42:53;19.10;91.30
8261;DHT22;64115;50.170;8.242;2023-06-14T09:45:23;18.90;91.20
8261;DHT22;64115;50.170;8.242;2023-06-14T09:47:54;18.90;91.50
8261;DHT22;64115;50.170;8.242;2023-06-14T09:50:22;19.10;91.70
8261;DHT22;64115;50.170;8.242;2023-06-14T09:52:52;19.30;91.50
8261;DHT22;64115;50.170;8.242;2023-06-14T09:55:19;19.30;90.80
8261;DHT22;64115;50.170;8.242;2023-06-14T09:57:48;19.00;91.00
8261;DHT22;64115;50.170;8.242;2023-06-14T10:00:17;19.00;91.70
8261;DHT22;64115;50.170;8.242;2023-06-14T10:02:50;19.10;90.80
8261;DHT22;64115;50.170;8.242;2023-06-14T10:05:21;19.00;91.60
8261;DHT22;64115;50.170;8.242;2023-06-14T10:07:55;19.40;93.10
8261;DHT22;64115;50.170;8.242;2023-06-14T10:10:23;19.60;90.90
8261;DHT22;64115;50.170;8.242;2023-06-14T10:12:52;19.40;91.40
8261;DHT22;64115;50.170;8.242;2023-06-14T10:15:24;19.40;91.90
8261;DHT22;64115;50.170;8.242;2023-06-14T10:17:59;19.30;90.20
8261;DHT22;64115;50.170;8.242;2023-06-14T10:20:32;19.30;90.70
8261;DHT22;64115;50.170;8.242;2023-06-14T10:23:03;19.20;91.80
8261;DHT22;64115;50.170;8.242;2023-06-14T10:25:32;19.40;92.80
8261;DHT22;64115;50.170;8.242;2023-06-14T10:31:07;19.20;91.00
8261;DHT22;64115;50.170;8.242;2023-06-14T10:33:35;19.30;91.10
8261;DHT22;64115;50.170;8.242;2023-06-14T10:36:25;19.40;92.80
8261;DHT22;64115;50.170;8.242;2023-06-14T10:39:00;19.70;90.90
8261;DHT22;64115;50.170;8.242;2023-06-14T10:41:28;19.70;91.50
8261;DHT22;64115;50.170;8.242;2023-06-14T10:44:37;19.70;92.30
8261;DHT22;64115;50.170;8.242;2023-06-14T10:47:07;19.60;91.90
8261;DHT22;64115;50.170;8.242;2023-06-14T10:49:39;19.90;91.90
8261;DHT22;64115;50.170;8.242;2023-06-14T10:52:09;20.00;91.40
8261;DHT22;64115;50.170;8.242;2023-06-14T10:55:04;19.80;90.90
8261;DHT22;64115;50.170;8.242;2023-06-14T10:57:34;19.70;93.20
8261;DHT22;64115;50.170;8.242;2023-06-14T11:00:06;19.90;91.60
8261;DHT22;64115;50.170;8.242;2023-06-14T11:05:54;19.90;90.60
8261;DHT22;64115;50.170;8.242;2023-06-14T11:11:22;19.80;90.10
8261;DHT22;64115;50.170;8.242;2023-06-14T11:13:52;20.20;90.50
8261;DHT22;64115;50.170;8.242;2023-06-14T11:16:26;20.50;90.00
8261;DHT22;64115;50.170;8.242;2023-06-14T11:18:53;19.80;90.60
8261;DHT22;64115;50.170;8.242;2023-06-14T11:21:20;19.50;91.00
8261;DHT22;64115;50.170;8.242;2023-06-14T11:23:50;19.80;88.70
8261;DHT22;64115;50.170;8.242;2023-06-14T11:26:24;20.10;90.50
8261;DHT22;64115;50.170;8.242;2023-06-14T11:28:58;20.50;90.10
8261;DHT22;64115;50.170;8.242;2023-06-14T11:31:26;20.70;91.30
8261;DHT22;64115;50.170;8.242;2023-06-14T11:33:54;20.70;91.60
8261;DHT22;64115;50.170;8.242;2023-06-14T11:36:22;20.90;90.80
8261;DHT22;64115;50.170;8.242;2023-06-14T11:38:51;20.20;89.00
8261;DHT22;64115;50.170;8.242;2023-06-14T11:41:24;19.70;90.10
8261;DHT22;64115;50.170;8.242;2023-06-14T11:43:54;19.70;92.00
8261;DHT22;64115;50.170;8.242;2023-06-14T11:46:21;20.10;92.10
8261;DHT22;64115;50.170;8.242;2023-06-14T11:48:51;20.50;91.10
8261;DHT22;64115;50.170;8.242;2023-06-14T11:51:19;20.90;90.60
8261;DHT22;64115;50.170;8.242;2023-06-14T11:53:46;20.80;89.30
8261;DHT22;64115;50.170;8.242;2023-06-14T11:56:14;19.90;88.80
8261;DHT22;64115;50.170;8.242;2023-06-14T11:58:42;19.60;90.10
8261;DHT22;64115;50.170;8.242;2023-06-14T12:01:09;19.50;92.30
8261;DHT22;64115;50.170;8.242;2023-06-14T12:03:36;19.90;89.90
8261;DHT22;64115;50.170;8.242;2023-06-14T12:06:06;19.80;90.30
8261;DHT22;64115;50.170;8.242;2023-06-14T12:08:37;20.20;89.40
8261;DHT22;64115;50.170;8.242;2023-06-14T12:11:06;20.80;90.40
8261;DHT22;64115;50.170;8.242;2023-06-14T12:13:34;21.20;91.70
8261;DHT22;64115;50.170;8.242;2023-06-14T12:16:02;21.00;91.70
8261;DHT22;64115;50.170;8.242;2023-06-14T12:18:33;20.90;87.70
8261;DHT22;64115;50.170;8.242;2023-06-14T12:21:01;20.70;91.60
8261;DHT22;64115;50.170;8.242;2023-06-14T12:23:49;20.90;89.90
8261;DHT22;64115;50.170;8.242;2023-06-14T12:26:18;20.70;89.10
8261;DHT22;64115;50.170;8.242;2023-06-14T12:28:46;20.60;87.10
8261;DHT22;64115;50.170;8.242;2023-06-14T12:31:14;20.70;88.90
8261;DHT22;64115;50.170;8.242;2023-06-14T12:33:42;20.90;90.90
8261;DHT22;64115;50.170;8.242;2023-06-14T12:36:09;20.80;88.10
8261;DHT22;64115;50.170;8.242;2023-06-14T12:38:39;20.60;90.10
8261;DHT22;64115;50.170;8.242;2023-06-14T12:41:07;20.70;90.00
8261;DHT22;64115;50.170;8.242;2023-06-14T12:43:34;20.70;90.50
8261;DHT22;64115;50.170;8.242;2023-06-14T12:46:01;21.00;90.00
8261;DHT22;64115;50.170;8.242;2023-06-14T12:48:28;21.50;90.80
8261;DHT22;64115;50.170;8.242;2023-06-14T12:50:56;21.80;87.70
8261;DHT22;64115;50.170;8.242;2023-06-14T12:53:23;20.80;87.00
8261;DHT22;64115;50.170;8.242;2023-06-14T12:55:50;20.30;88.00
8261;DHT22;64115;50.170;8.242;2023-06-14T12:58:18;19.80;90.00
8261;DHT22;64115;50.170;8.242;2023-06-14T13:00:46;19.60;90.50
8261;DHT22;64115;50.170;8.242;2023-06-14T13:03:12;19.70;89.80
8261;DHT22;64115;50.170;8.242;2023-06-14T13:05:39;19.70;90.60
8261;DHT22;64115;50.170;8.242;2023-06-14T13:08:07;20.10;90.00
8261;DHT22;64115;50.170;8.242;2023-06-14T13:10:35;20.60;89.10
8261;DHT22;64115;50.170;8.242;2023-06-14T13:13:01;20.70;90.90
8261;DHT22;64115;50.170;8.242;2023-06-14T13:15:30;20.40;88.40
8261;DHT22;64115;50.170;8.242;2023-06-14T13:17:57;20.00;89.40
8261;DHT22;64115;50.170;8.242;2023-06-14T13:20:23;19.80;89.50
8261;DHT22;64115;50.170;8.242;2023-06-14T13:22:50;19.80;90.50
8261;DHT22;64115;50.170;8.242;2023-06-14T13:25:17;19.80;89.90
8261;DHT22;64115;50.170;8.242;2023-06-14T13:27:44;19.70;90.80
8261;DHT22;64115;50.170;8.242;2023-06-14T13:30:12;19.60;90.40
8261;DHT22;64115;50.170;8.242;2023-06-14T13:32:40;19.70;90.20
8261;DHT22;64115;50.170;8.242;2023-06-14T13:35:07;20.30;91.60
8261;DHT22;64115;50.170;8.242;2023-06-14T13:37:34;21.00;88.10
8261;DHT22;64115;50.170;8.242;2023-06-14T13:40:00;21.60;84.70
8261;DHT22;64115;50.170;8.242;2023-06-14T13:42:28;22.00;87.10
8261;DHT22;64115;50.170;8.242;2023-06-14T13:44:56;21.60;86.30
8261;DHT22;64115;50.170;8.242;2023-06-14T13:47:23;20.60;84.50
8261;DHT22;64115;50.170;8.242;2023-06-14T13:49:51;19.90;85.40
8261;DHT22;64115;50.170;8.242;2023-06-14T13:52:18;19.80;89.50
8261;DHT22;64115;50.170;8.242;2023-06-14T13:54:45;19.70;88.10
8261;DHT22;64115;50.170;8.242;2023-06-14T13:57:12;20.10;87.40
8261;DHT22;64115;50.170;8.242;2023-06-14T13:59:39;20.60;87.30
8261;DHT22;64115;50.170;8.242;2023-06-14T14:02:11;21.20;89.30
8261;DHT22;64115;50.170;8.242;2023-06-14T14:04:39;21.70;88.60
8261;DHT22;64115;50.170;8.242;2023-06-14T14:07:18;22.20;83.70
8261;DHT22;64115;50.170;8.242;2023-06-14T14:09:46;22.40;86.50
8261;DHT22;64115;50.170;8.242;2023-06-14T14:12:13;22.00;87.30
8261;DHT22;64115;50.170;8.242;2023-06-14T14:14:40;21.30;85.90
8261;DHT22;64115;50.170;8.242;2023-06-14T14:17:07;21.00;85.90
8261;DHT22;64115;50.170;8.242;2023-06-14T14:19:33;20.50;81.70
8261;DHT22;64115;50.170;8.242;2023-06-14T14:22:01;20.40;84.10
8261;DHT22;64115;50.170;8.242;2023-06-14T14:24:30;20.70;84.60
8261;DHT22;64115;50.170;8.242;2023-06-14T14:26:56;21.20;84.20
8261;DHT22;64115;50.170;8.242;2023-06-14T14:29:25;21.40;85.10
8261;DHT22;64115;50.170;8.242;2023-06-14T14:31:54;21.50;87.80
8261;DHT22;64115;50.170;8.242;2023-06-14T14:34:21;21.10;86.60
8261;DHT22;64115;50.170;8.242;2023-06-14T14:36:48;20.70;87.80
8261;DHT22;64115;50.170;8.242;2023-06-14T14:39:15;20.40;89.20
8261;DHT22;64115;50.170;8.242;2023-06-14T14:41:43;20.20;90.10
8261;DHT22;64115;50.170;8.242;2023-06-14T14:44:10;20.10;89.80
8261;DHT22;64115;50.170;8.242;2023-06-14T14:46:37;19.80;89.70
8261;DHT22;64115;50.170;8.242;2023-06-14T14:49:04;19.60;90.40
8261;DHT22;64115;50.170;8.242;2023-06-14T14:51:31;19.50;90.20
8261;DHT22;64115;50.170;8.242;2023-06-14T14:53:57;19.50;90.70
8261;DHT22;64115;50.170;8.242;2023-06-14T14:56:24;19.50;91.00
8261;DHT22;64115;50.170;8.242;2023-06-14T14:58:54;19.90;91.20
8261;DHT22;64115;50.170;8.242;2023-06-14T15:01:21;20.60;89.20
8261;DHT22;64115;50.170;8.242;2023-06-14T15:03:51;21.20;86.40
8261;DHT22;64115;50.170;8.242;2023-06-14T15:06:17;21.60;84.10
8261;DHT22;64115;50.170;8.242;2023-06-14T15:08:44;21.30;87.60
8261;DHT22;64115;50.170;8.242;2023-06-14T15:11:11;20.90;88.80
8261;DHT22;64115;50.170;8.242;2023-06-14T15:13:38;20.50;84.80
8261;DHT22;64115;50.170;8.242;2023-06-14T15:16:06;20.10;85.60
8261;DHT22;64115;50.170;8.242;2023-06-14T15:18:32;19.90;89.20
8261;DHT22;64115;50.170;8.242;2023-06-14T15:20:59;19.80;85.70
8261;DHT22;64115;50.170;8.242;2023-06-14T15:23:26;20.00;87.20
8261;DHT22;64115;50.170;8.242;2023-06-14T15:25:54;20.20;86.60
8261;DHT22;64115;50.170;8.242;2023-06-14T15:28:21;20.80;88.30
8261;DHT22;64115;50.170;8.242;2023-06-14T15:30:49;21.20;83.70
8261;DHT22;64115;50.170;8.242;2023-06-14T15:33:17;21.30;85.10
8261;DHT22;64115;50.170;8.242;2023-06-14T15:35:46;21.10;86.40
8261;DHT22;64115;50.170;8.242;2023-06-14T15:38:13;20.80;88.30
8261;DHT22;64115;50.170;8.242;2023-06-14T15:40:40;20.30;86.10
8261;DHT22;64115;50.170;8.242;2023-06-14T15:43:06;20.10;88.20
8261;DHT22;64115;50.170;8.242;2023-06-14T15:45:34;19.80;89.50
8261;DHT22;64115;50.170;8.242;2023-06-14T15:48:02;19.90;90.00
8261;DHT22;64115;50.170;8.242;2023-06-14T15:50:31;20.70;90.00
8261;DHT22;64115;50.170;8.242;2023-06-14T15:52:58;21.60;85.60
8261;DHT22;64115;50.170;8.242;2023-06-14T15:55:24;22.90;82.40
8261;DHT22;64115;50.170;8.242;2023-06-14T15:57:51;24.20;81.90
8261;DHT22;64115;50.170;8.242;2023-06-14T16:00:18;25.00;80.20
8261;DHT22;64115;50.170;8.242;2023-06-14T16:02:46;24.80;77.30
8261;DHT22;64115;50.170;8.242;2023-06-14T16:05:15;24.70;79.00
8261;DHT22;64115;50.170;8.242;2023-06-14T16:07:43;24.50;81.10
8261;DHT22;64115;50.170;8.242;2023-06-14T16:10:10;24.00;80.50
8261;DHT22;64115;50.170;8.242;2023-06-14T16:12:37;23.10;83.30
8261;DHT22;64115;50.170;8.242;2023-06-14T16:15:04;21.60;84.50
8261;DHT22;64115;50.170;8.242;2023-06-14T16:17:31;20.70;85.40
8261;DHT22;64115;50.170;8.242;2023-06-14T16:19:58;20.30;85.70
8261;DHT22;64115;50.170;8.242;2023-06-14T16:22:25;19.80;87.10
8261;DHT22;64115;50.170;8.242;2023-06-14T16:24:53;19.70;88.70
8261;DHT22;64115;50.170;8.242;2023-06-14T16:27:20;19.50;90.40
8261;DHT22;64115;50.170;8.242;2023-06-14T16:29:46;19.50;89.90
8261;DHT22;64115;50.170;8.242;2023-06-14T16:32:13;19.70;88.50
8261;DHT22;64115;50.170;8.242;2023-06-14T16:34:40;19.90;87.30
8261;DHT22;64115;50.170;8.242;2023-06-14T16:37:07;19.80;89.40
8261;DHT22;64115;50.170;8.242;2023-06-14T16:39:33;19.70;89.10
8261;DHT22;64115;50.170;8.242;2023-06-14T16:42:02;19.60;90.20
8261;DHT22;64115;50.170;8.242;2023-06-14T16:44:29;19.70;90.90
8261;DHT22;64115;50.170;8.242;2023-06-14T16:46:56;19.60;90.20
8261;DHT22;64115;50.170;8.242;2023-06-14T16:49:25;19.50;90.20
8261;DHT22;64115;50.170;8.242;2023-06-14T16:51:54;19.30;90.10
8261;DHT22;64115;50.170;8.242;2023-06-14T16:54:21;19.30;90.00
8261;DHT22;64115;50.170;8.242;2023-06-14T16:56:47;19.20;89.50
8261;DHT22;64115;50.170;8.242;2023-06-14T16:59:16;19.10;90.10
8261;DHT22;64115;50.170;8.242;2023-06-14T17:01:43;19.10;90.10
8261;DHT22;64115;50.170;8.242;2023-06-14T17:04:10;18.80;89.30
8261;DHT22;64115;50.170;8.242;2023-06-14T17:06:37;18.80;89.60
8261;DHT22;64115;50.170;8.242;2023-06-14T17:09:03;18.80;90.00
8261;DHT22;64115;50.170;8.242;2023-06-14T17:11:30;18.80;90.00
8261;DHT22;64115;50.170;8.242;2023-06-14T17:13:57;18.80;90.00
8261;DHT22;64115;50.170;8.242;2023-06-14T17:16:25;18.90;90.30
8261;DHT22;64115;50.170;8.242;2023-06-14T17:18:52;18.90;90.40
8261;DHT22;64115;50.170;8.242;2023-06-14T17:21:18;19.00;90.00
8261;DHT22;64115;50.170;8.242;2023-06-14T17:23:45;19.10;90.20
8261;DHT22;64115;50.170;8.242;2023-06-14T17:26:12;19.10;90.20
8261;DHT22;64115;50.170;8.242;2023-06-14T17:28:39;19.20;90.50
8261;DHT22;64115;50.170;8.242;2023-06-14T17:31:05;19.30;91.20
8261;DHT22;64115;50.170;8.242;2023-06-14T17:33:34;19.30;90.70
8261;DHT22;64115;50.170;8.242;2023-06-14T17:36:01;19.30;89.70
8261;DHT22;64115;50.170;8.242;2023-06-14T17:38:28;19.20;89.20
8261;DHT22;64115;50.170;8.242;2023-06-14T17:40:56;19.20;89.00
8261;DHT22;64115;50.170;8.242;2023-06-14T17:43:24;19.10;88.20
8261;DHT22;64115;50.170;8.242;2023-06-14T17:45:51;19.10;88.70
8261;DHT22;64115;50.170;8.242;2023-06-14T17:48:18;19.00;89.40
8261;DHT22;64115;50.170;8.242;2023-06-14T17:50:47;18.90;90.00
8261;DHT22;64115;50.170;8.242;2023-06-14T17:53:14;18.80;90.00
8261;DHT22;64115;50.170;8.242;2023-06-14T17:55:41;18.70;89.30
8261;DHT22;64115;50.170;8.242;2023-06-14T17:58:08;18.60;90.10
8261;DHT22;64115;50.170;8.242;2023-06-14T18:00:35;18.50;90.30
8261;DHT22;64115;50.170;8.242;2023-06-14T18:03:03;18.40;90.40
8261;DHT22;64115;50.170;8.242;2023-06-14T18:05:30;18.40;90.20
8261;DHT22;64115;50.170;8.242;2023-06-14T18:07:58;18.30;90.30
8261;DHT22;64115;50.170;8.242;2023-06-14T18:10:25;18.20;90.60
8261;DHT22;64115;50.170;8.242;2023-06-14T18:12:52;18.20;90.70
8261;DHT22;64115;50.170;8.242;2023-06-14T18:15:19;18.10;90.70
8261;DHT22;64115;50.170;8.242;2023-06-14T18:17:45;18.00;90.70
8261;DHT22;64115;50.170;8.242;2023-06-14T18:20:12;18.00;90.90
8261;DHT22;64115;50.170;8.242;2023-06-14T18:22:39;17.90;91.00
8261;DHT22;64115;50.170;8.242;2023-06-14T18:25:07;17.80;91.20
8261;DHT22;64115;50.170;8.242;2023-06-14T18:27:34;17.70;91.20
8261;DHT22;64115;50.170;8.242;2023-06-14T18:30:01;17.60;91.50
8261;DHT22;64115;50.170;8.242;2023-06-14T18:32:28;17.60;90.90
8261;DHT22;64115;50.170;8.242;2023-06-14T18:34:57;17.50;91.50
8261;DHT22;64115;50.170;8.242;2023-06-14T18:37:24;17.50;92.00
8261;DHT22;64115;50.170;8.242;2023-06-14T18:39:51;17.50;91.60
8261;DHT22;64115;50.170;8.242;2023-06-14T18:42:19;17.50;91.90
8261;DHT22;64115;50.170;8.242;2023-06-14T18:44:46;17.30;91.70
8261;DHT22;64115;50.170;8.242;2023-06-14T18:47:13;17.30;91.70
8261;DHT22;64115;50.170;8.242;2023-06-14T18:49:40;17.20;92.00
8261;DHT22;64115;50.170;8.242;2023-06-14T18:52:07;17.20;91.80
8261;DHT22;64115;50.170;8.242;2023-06-14T18:54:34;17.20;92.40
8261;DHT22;64115;50.170;8.242;2023-06-14T18:57:01;17.10;91.70